sensor_id;sensor_type;location;lat;lon;timestamp;pressure;altitude;pressure_sealevel;temperature;humidity
67434;BME280;54305;47.950;6.572;2023-03-14T00:01:31;92906.41;;;7.63;100.00
67434;BME280;54305;47.950;6.572;2023-03-14T00:03:56;92905.78;;;7.61;100.00
67434;BME280;54305;47.950;6.572;2023-03-14T00:06:22;92919.59;;;7.53;100.00
67434;BME280;54305;47.950;6.572;2023-03-14T00:08:47;92933.00;;;7.42;100.00
67434;BME280;54305;47.950;6.572;2023-03-14T00:11:17;92910.22;;;7.38;100.00
67434;BME280;54305;47.950;6.572;2023-03-14T00:13:43;92914.69;;;7.44;100.00
67434;BME280;54305;47.950;6.572;2023-03-14T00:16:09;92919.53;;;7.47;100.00
67434;BME280;54305;47.950;6.572;2023-03-14T00:18:36;92916.75;;;7.48;100.00
67434;BME280;54305;47.950;6.572;2023-03-14T00:21:03;92918.28;;;7.43;100.00
67434;BME280;54305;47.950;6.572;2023-03-14T00:23:29;92919.88;;;7.44;100.00
67434;BME280;54305;47.950;6.572;2023-03-14T00:26:02;92929.31;;;7.37;100.00
67434;BME280;54305;47.950;6.572;2023-03-14T00:28:28;92927.09;;;7.34;100.00
67434;BME280;54305;47.950;6.572;2023-03-14T00:30:54;92924.06;;;7.30;100.00
67434;BME280;54305;47.950;6.572;2023-03-14T00:33:19;92915.47;;;7.30;100.00
67434;BME280;54305;47.950;6.572;2023-03-14T00:35:54;92919.66;;;7.31;100.00
67434;BME280;54305;47.950;6.572;2023-03-14T00:38:21;92924.50;;;7.34;100.00
67434;BME280;54305;47.950;6.572;2023-03-14T00:40:46;92922.09;;;7.32;100.00
67434;BME280;54305;47.950;6.572;2023-03-14T00:43:12;92928.44;;;7.30;100.00
67434;BME280;54305;47.950;6.572;2023-03-14T00:45:37;92922.34;;;7.23;100.00
67434;BME280;54305;47.950;6.572;2023-03-14T00:48:02;92926.28;;;7.19;100.00
67434;BME280;54305;47.950;6.572;2023-03-14T00:50:27;92931.44;;;7.19;100.00
67434;BME280;54305;47.950;6.572;2023-03-14T00:52:53;92936.97;;;7.16;100.00
67434;BME280;54305;47.950;6.572;2023-03-14T00:55:18;92939.91;;;7.13;100.00
67434;BME280;54305;47.950;6.572;2023-03-14T00:57:43;92940.38;;;7.16;100.00
67434;BME280;54305;47.950;6.572;2023-03-14T01:00:11;92941.25;;;7.09;100.00
67434;BME280;54305;47.950;6.572;2023-03-14T01:02:37;92944.78;;;7.08;100.00
67434;BME280;54305;47.950;6.572;2023-03-14T01:05:02;92938.81;;;7.07;100.00
67434;BME280;54305;47.950;6.572;2023-03-14T01:07:28;92934.81;;;7.05;100.00
67434;BME280;54305;47.950;6.572;2023-03-14T01:09:53;92940.31;;;7.02;100.00
67434;BME280;54305;47.950;6.572;2023-03-14T01:12:18;92952.25;;;7.03;100.00
67434;BME280;54305;47.950;6.572;2023-03-14T01:14:43;92928.69;;;6.98;100.00
67434;BME280;54305;47.950;6.572;2023-03-14T01:17:09;92917.38;;;6.99;100.00
67434;BME280;54305;47.950;6.572;2023-03-14T01:19:34;92916.41;;;7.00;100.00
67434;BME280;54305;47.950;6.572;2023-03-14T01:21:59;92928.03;;;7.04;100.00
67434;BME280;54305;47.950;6.572;2023-03-14T01:24:24;92916.69;;;7.05;100.00
67434;BME280;54305;47.950;6.572;2023-03-14T01:26:52;92920.88;;;7.06;100.00
67434;BME280;54305;47.950;6.572;2023-03-14T01:29:18;92905.00;;;7.09;100.00
67434;BME280;54305;47.950;6.572;2023-03-14T01:31:43;92910.53;;;7.06;100.00
67434;BME280;54305;47.950;6.572;2023-03-14T01:34:08;92890.88;;;6.97;100.00
67434;BME280;54305;47.950;6.572;2023-03-14T01:36:34;92899.28;;;6.99;100.00
67434;BME280;54305;47.950;6.572;2023-03-14T01:39:00;92896.84;;;6.97;100.00
67434;BME280;54305;47.950;6.572;2023-03-14T01:41:26;92902.81;;;6.98;100.00
67434;BME280;54305;47.950;6.572;2023-03-14T01:43:51;92896.03;;;6.97;100.00
67434;BME280;54305;47.950;6.572;2023-03-14T01:51:16;92876.50;;;6.94;100.00
67434;BME280;54305;47.950;6.572;2023-03-14T01:53:41;92852.69;;;6.99;100.00
67434;BME280;54305;47.950;6.572;2023-03-14T01:56:08;92869.81;;;7.00;100.00
67434;BME280;54305;47.950;6.572;2023-03-14T01:58:35;92863.66;;;7.01;100.00
67434;BME280;54305;47.950;6.572;2023-03-14T02:01:03;92867.22;;;7.00;100.00
67434;BME280;54305;47.950;6.572;2023-03-14T02:03:29;92866.59;;;6.98;100.00
67434;BME280;54305;47.950;6.572;2023-03-14T02:05:56;92869.19;;;6.98;100.00
67434;BME280;54305;47.950;6.572;2023-03-14T02:08:24;92882.38;;;7.03;100.00
67434;BME280;54305;47.950;6.572;2023-03-14T02:10:51;92884.44;;;6.93;100.00
67434;BME280;54305;47.950;6.572;2023-03-14T02:13:17;92861.78;;;6.95;100.00
67434;BME280;54305;47.950;6.572;2023-03-14T02:15:43;92856.34;;;6.90;100.00
67434;BME280;54305;47.950;6.572;2023-03-14T02:18:08;92841.69;;;6.82;100.00
67434;BME280;54305;47.950;6.572;2023-03-14T02:20:53;92834.44;;;6.78;100.00
67434;BME280;54305;47.950;6.572;2023-03-14T02:28:30;92824.78;;;6.72;100.00
67434;BME280;54305;47.950;6.572;2023-03-14T02:30:56;92817.66;;;6.74;100.00
67434;BME280;54305;47.950;6.572;2023-03-14T02:33:21;92823.03;;;6.72;100.00
67434;BME280;54305;47.950;6.572;2023-03-14T02:40:44;92809.34;;;6.64;100.00
67434;BME280;54305;47.950;6.572;2023-03-14T02:43:09;92795.50;;;6.57;100.00
67434;BME280;54305;47.950;6.572;2023-03-14T02:48:02;92803.44;;;6.55;100.00
67434;BME280;54305;47.950;6.572;2023-03-14T02:50:30;92793.09;;;6.55;100.00
67434;BME280;54305;47.950;6.572;2023-03-14T02:52:58;92791.94;;;6.58;100.00
67434;BME280;54305;47.950;6.572;2023-03-14T02:55:23;92794.25;;;6.53;100.00
67434;BME280;54305;47.950;6.572;2023-03-14T02:57:50;92773.56;;;6.53;100.00
67434;BME280;54305;47.950;6.572;2023-03-14T03:00:16;92784.06;;;6.51;100.00
67434;BME280;54305;47.950;6.572;2023-03-14T03:02:41;92790.69;;;6.54;100.00
67434;BME280;54305;47.950;6.572;2023-03-14T03:05:06;92775.97;;;6.54;100.00
67434;BME280;54305;47.950;6.572;2023-03-14T03:07:32;92763.50;;;6.58;100.00
67434;BME280;54305;47.950;6.572;2023-03-14T03:09:57;92761.56;;;6.60;100.00
67434;BME280;54305;47.950;6.572;2023-03-14T03:12:22;92759.31;;;6.57;100.00
67434;BME280;54305;47.950;6.572;2023-03-14T03:14:47;92762.50;;;6.59;100.00
67434;BME280;54305;47.950;6.572;2023-03-14T03:17:13;92763.75;;;6.63;100.00
67434;BME280;54305;47.950;6.572;2023-03-14T03:19:38;92766.53;;;6.61;100.00
67434;BME280;54305;47.950;6.572;2023-03-14T03:22:03;92761.19;;;6.63;100.00
67434;BME280;54305;47.950;6.572;2023-03-14T03:24:31;92763.44;;;6.66;100.00
67434;BME280;54305;47.950;6.572;2023-03-14T03:26:56;92761.56;;;6.60;100.00
67434;BME280;54305;47.950;6.572;2023-03-14T03:29:21;92755.84;;;6.64;100.00
67434;BME280;54305;47.950;6.572;2023-03-14T03:31:47;92754.69;;;6.67;100.00
67434;BME280;54305;47.950;6.572;2023-03-14T03:34:12;92754.69;;;6.67;100.00
67434;BME280;54305;47.950;6.572;2023-03-14T03:36:38;92749.06;;;6.63;100.00
67434;BME280;54305;47.950;6.572;2023-03-14T03:39:03;92746.81;;;6.60;100.00
67434;BME280;54305;47.950;6.572;2023-03-14T03:41:29;92739.50;;;6.64;100.00
67434;BME280;54305;47.950;6.572;2023-03-14T03:43:54;92722.50;;;6.69;100.00
67434;BME280;54305;47.950;6.572;2023-03-14T03:46:19;92721.66;;;6.69;100.00
67434;BME280;54305;47.950;6.572;2023-03-14T03:48:45;92712.16;;;6.69;100.00
67434;BME280;54305;47.950;6.572;2023-03-14T03:51:11;92717.16;;;6.71;100.00
67434;BME280;54305;47.950;6.572;2023-03-14T03:53:37;92711.53;;;6.67;100.00
67434;BME280;54305;47.950;6.572;2023-03-14T03:56:03;92713.31;;;6.67;100.00
67434;BME280;54305;47.950;6.572;2023-03-14T03:58:28;92713.31;;;6.67;100.00
67434;BME280;54305;47.950;6.572;2023-03-14T04:00:53;92728.00;;;6.66;100.00
67434;BME280;54305;47.950;6.572;2023-03-14T04:03:19;92704.56;;;6.68;100.00
67434;BME280;54305;47.950;6.572;2023-03-14T04:05:44;92704.56;;;6.68;100.00
67434;BME280;54305;47.950;6.572;2023-03-14T04:08:09;92700.91;;;6.62;100.00
67434;BME280;54305;47.950;6.572;2023-03-14T04:10:35;92706.53;;;6.66;100.00
67434;BME280;54305;47.950;6.572;2023-03-14T04:13:00;92696.91;;;6.60;100.00
67434;BME280;54305;47.950;6.572;2023-03-14T04:15:25;92695.28;;;6.59;100.00
67434;BME280;54305;47.950;6.572;2023-03-14T04:17:50;92706.25;;;6.61;100.00
67434;BME280;54305;47.950;6.572;2023-03-14T04:20:16;92658.72;;;6.62;100.00
67434;BME280;54305;47.950;6.572;2023-03-14T04:22:41;92670.75;;;6.69;100.00
67434;BME280;54305;47.950;6.572;2023-03-14T04:25:06;92672.34;;;6.70;100.00
67434;BME280;54305;47.950;6.572;2023-03-14T04:27:32;92665.59;;;6.69;100.00
67434;BME280;54305;47.950;6.572;2023-03-14T04:29:57;92668.78;;;6.71;100.00
67434;BME280;54305;47.950;6.572;2023-03-14T04:32:22;92672.44;;;6.77;100.00
67434;BME280;54305;47.950;6.572;2023-03-14T04:34:48;92669.25;;;6.75;100.00
67434;BME280;54305;47.950;6.572;2023-03-14T04:37:13;92671.47;;;6.78;100.00
67434;BME280;54305;47.950;6.572;2023-03-14T04:39:41;92664.34;;;6.80;100.00
67434;BME280;54305;47.950;6.572;2023-03-14T04:42:06;92670.84;;;6.76;100.00
67434;BME280;54305;47.950;6.572;2023-03-14T04:44:31;92676.63;;;6.78;100.00
67434;BME280;54305;47.950;6.572;2023-03-14T04:46:57;92658.53;;;6.78;100.00
67434;BME280;54305;47.950;6.572;2023-03-14T04:49:22;92649.16;;;6.77;100.00
67434;BME280;54305;47.950;6.572;2023-03-14T04:51:47;92636.25;;;6.77;100.00
67434;BME280;54305;47.950;6.572;2023-03-14T04:54:13;92656.94;;;6.77;100.00
67434;BME280;54305;47.950;6.572;2023-03-14T04:56:38;92646.94;;;6.74;100.00
67434;BME280;54305;47.950;6.572;2023-03-14T04:59:03;92648.91;;;6.72;100.00
67434;BME280;54305;47.950;6.572;2023-03-14T05:01:29;92639.13;;;6.67;100.00
67434;BME280;54305;47.950;6.572;2023-03-14T05:03:54;92629.28;;;6.63;100.00
67434;BME280;54305;47.950;6.572;2023-03-14T05:06:19;92619.31;;;6.60;100.00
67434;BME280;54305;47.950;6.572;2023-03-14T05:08:45;92619.31;;;6.60;100.00
67434;BME280;54305;47.950;6.572;2023-03-14T05:11:10;92632.88;;;6.62;100.00
67434;BME280;54305;47.950;6.572;2023-03-14T05:13:36;92620.91;;;6.61;100.00
67434;BME280;54305;47.950;6.572;2023-03-14T05:16:05;92614.16;;;6.60;100.00
67434;BME280;54305;47.950;6.572;2023-03-14T05:18:31;92622.09;;;6.58;100.00
67434;BME280;54305;47.950;6.572;2023-03-14T05:20:56;92615.31;;;6.57;100.00
67434;BME280;54305;47.950;6.572;2023-03-14T05:23:21;92616.09;;;6.58;100.00
67434;BME280;54305;47.950;6.572;2023-03-14T05:25:46;92612.91;;;6.56;100.00
67434;BME280;54305;47.950;6.572;2023-03-14T05:28:12;92617.81;;;6.51;100.00
67434;BME280;54305;47.950;6.572;2023-03-14T05:30:37;92619.75;;;6.49;100.00
67434;BME280;54305;47.950;6.572;2023-03-14T05:33:02;92608.06;;;6.53;100.00
67434;BME280;54305;47.950;6.572;2023-03-14T05:35:28;92610.06;;;6.51;100.00
67434;BME280;54305;47.950;6.572;2023-03-14T05:37:53;92612.00;;;6.49;100.00
67434;BME280;54305;47.950;6.572;2023-03-14T05:40:18;92602.47;;;6.49;100.00
67434;BME280;54305;47.950;6.572;2023-03-14T05:42:43;92607.19;;;6.46;100.00
67434;BME280;54305;47.950;6.572;2023-03-14T05:45:11;92601.38;;;6.44;100.00
67434;BME280;54305;47.950;6.572;2023-03-14T05:47:36;92599.63;;;6.44;100.00
67434;BME280;54305;47.950;6.572;2023-03-14T05:50:02;92597.19;;;6.43;100.00
67434;BME280;54305;47.950;6.572;2023-03-14T05:52:27;92592.38;;;6.40;100.00
67434;BME280;54305;47.950;6.572;2023-03-14T05:54:52;92588.38;;;6.37;100.00
67434;BME280;54305;47.950;6.572;2023-03-14T05:57:17;92593.19;;;6.40;100.00
67434;BME280;54305;47.950;6.572;2023-03-14T05:59:43;92591.41;;;6.41;100.00
67434;BME280;54305;47.950;6.572;2023-03-14T06:02:08;92595.34;;;6.37;100.00
67434;BME280;54305;47.950;6.572;2023-03-14T06:04:33;92595.16;;;6.38;100.00
67434;BME280;54305;47.950;6.572;2023-03-14T06:06:58;92595.94;;;6.39;100.00
67434;BME280;54305;47.950;6.572;2023-03-14T06:09:24;92594.78;;;6.41;100.00
67434;BME280;54305;47.950;6.572;2023-03-14T06:11:49;92588.84;;;6.41;100.00
67434;BME280;54305;47.950;6.572;2023-03-14T06:14:14;92580.44;;;6.39;100.00
67434;BME280;54305;47.950;6.572;2023-03-14T06:16:40;92606.28;;;6.39;100.00
67434;BME280;54305;47.950;6.572;2023-03-14T06:19:05;92593.91;;;6.34;100.00
67434;BME280;54305;47.950;6.572;2023-03-14T06:21:30;92589.34;;;6.36;100.00
67434;BME280;54305;47.950;6.572;2023-03-14T06:23:55;92607.00;;;6.33;100.00
67434;BME280;54305;47.950;6.572;2023-03-14T06:26:21;92601.66;;;6.34;100.00
67434;BME280;54305;47.950;6.572;2023-03-14T06:28:48;92607.34;;;6.30;100.00
67434;BME280;54305;47.950;6.572;2023-03-14T06:31:13;92604.59;;;6.31;100.00
67434;BME280;54305;47.950;6.572;2023-03-14T06:33:38;92610.59;;;6.32;100.00
67434;BME280;54305;47.950;6.572;2023-03-14T06:36:03;92613.34;;;6.30;100.00
67434;BME280;54305;47.950;6.572;2023-03-14T06:38:29;92610.94;;;6.29;100.00
67434;BME280;54305;47.950;6.572;2023-03-14T06:40:54;92611.28;;;6.26;100.00
67434;BME280;54305;47.950;6.572;2023-03-14T06:43:19;92635.50;;;6.25;100.00
67434;BME280;54305;47.950;6.572;2023-03-14T06:45:44;92623.91;;;6.21;100.00
67434;BME280;54305;47.950;6.572;2023-03-14T06:48:12;92623.91;;;6.21;100.00
67434;BME280;54305;47.950;6.572;2023-03-14T06:50:37;92620.38;;;6.22;100.00
67434;BME280;54305;47.950;6.572;2023-03-14T06:53:02;92612.81;;;6.20;100.00
67434;BME280;54305;47.950;6.572;2023-03-14T06:55:28;92625.56;;;6.22;100.00
67434;BME280;54305;47.950;6.572;2023-03-14T06:57:53;92629.47;;;6.18;100.00
67434;BME280;54305;47.950;6.572;2023-03-14T07:00:18;92610.38;;;6.19;100.00
67434;BME280;54305;47.950;6.572;2023-03-14T07:02:43;92631.22;;;6.17;100.00
67434;BME280;54305;47.950;6.572;2023-03-14T07:05:09;92634.97;;;6.15;100.00
67434;BME280;54305;47.950;6.572;2023-03-14T07:07:35;92643.38;;;6.17;100.00
67434;BME280;54305;47.950;6.572;2023-03-14T07:10:00;92640.78;;;6.17;100.00
67434;BME280;54305;47.950;6.572;2023-03-14T07:12:26;92643.72;;;6.14;100.00
67434;BME280;54305;47.950;6.572;2023-03-14T07:14:51;92650.84;;;6.12;100.00
67434;BME280;54305;47.950;6.572;2023-03-14T07:17:16;92650.84;;;6.12;100.00
67434;BME280;54305;47.950;6.572;2023-03-14T07:19:43;92666.69;;;6.09;100.00
67434;BME280;54305;47.950;6.572;2023-03-14T07:22:09;92645.19;;;6.08;100.00
67434;BME280;54305;47.950;6.572;2023-03-14T07:24:34;92655.53;;;6.08;100.00
67434;BME280;54305;47.950;6.572;2023-03-14T07:26:59;92657.84;;;6.03;100.00
67434;BME280;54305;47.950;6.572;2023-03-14T07:29:24;92663.22;;;6.02;100.00
67434;BME280;54305;47.950;6.572;2023-03-14T07:31:50;92676.47;;;5.99;100.00
67434;BME280;54305;47.950;6.572;2023-03-14T07:34:15;92680.38;;;5.95;100.00
67434;BME280;54305;47.950;6.572;2023-03-14T07:36:40;92672.78;;;5.93;100.00
67434;BME280;54305;47.950;6.572;2023-03-14T07:39:08;92671.72;;;5.88;100.00
67434;BME280;54305;47.950;6.572;2023-03-14T07:41:34;92665.56;;;5.89;100.00
67434;BME280;54305;47.950;6.572;2023-03-14T07:44:00;92665.56;;;5.89;100.00
67434;BME280;54305;47.950;6.572;2023-03-14T07:46:25;92669.13;;;5.88;100.00
67434;BME280;54305;47.950;6.572;2023-03-14T07:48:50;92692.03;;;5.91;100.00
67434;BME280;54305;47.950;6.572;2023-03-14T07:51:15;92685.53;;;5.95;100.00
67434;BME280;54305;47.950;6.572;2023-03-14T07:53:41;92659.88;;;5.93;100.00
67434;BME280;54305;47.950;6.572;2023-03-14T07:56:08;92703.00;;;5.93;100.00
67434;BME280;54305;47.950;6.572;2023-03-14T07:58:33;92683.28;;;5.92;100.00
67434;BME280;54305;47.950;6.572;2023-03-14T08:00:58;92699.44;;;5.94;100.00
67434;BME280;54305;47.950;6.572;2023-03-14T08:03:24;92662.81;;;5.90;100.00
67434;BME280;54305;47.950;6.572;2023-03-14T08:05:49;92699.88;;;5.97;100.00
67434;BME280;54305;47.950;6.572;2023-03-14T08:08:18;92674.88;;;5.98;100.00
67434;BME280;54305;47.950;6.572;2023-03-14T08:10:43;92685.03;;;5.99;100.00
67434;BME280;54305;47.950;6.572;2023-03-14T08:13:09;92675.47;;;6.00;100.00
67434;BME280;54305;47.950;6.572;2023-03-14T08:15:34;92671.13;;;6.00;100.00
67434;BME280;54305;47.950;6.572;2023-03-14T08:18:00;92676.13;;;6.02;100.00
67434;BME280;54305;47.950;6.572;2023-03-14T08:20:26;92678.72;;;6.02;100.00
67434;BME280;54305;47.950;6.572;2023-03-14T08:22:51;92679.31;;;6.04;100.00
67434;BME280;54305;47.950;6.572;2023-03-14T08:25:17;92690.94;;;6.08;100.00
67434;BME280;54305;47.950;6.572;2023-03-14T08:27:42;92685.38;;;6.11;100.00
67434;BME280;54305;47.950;6.572;2023-03-14T08:30:09;92687.34;;;6.09;100.00
67434;BME280;54305;47.950;6.572;2023-03-14T08:32:35;92697.00;;;6.15;100.00
67434;BME280;54305;47.950;6.572;2023-03-14T08:35:01;92707.69;;;6.12;100.00
67434;BME280;54305;47.950;6.572;2023-03-14T08:37:26;92694.41;;;6.15;100.00
67434;BME280;54305;47.950;6.572;2023-03-14T08:39:52;92729.59;;;6.16;100.00
67434;BME280;54305;47.950;6.572;2023-03-14T08:42:19;92718.31;;;6.17;100.00
67434;BME280;54305;47.950;6.572;2023-03-14T08:44:45;92698.13;;;6.12;100.00
67434;BME280;54305;47.950;6.572;2023-03-14T08:47:10;92711.50;;;6.16;100.00
67434;BME280;54305;47.950;6.572;2023-03-14T08:49:35;92739.16;;;6.15;100.00
67434;BME280;54305;47.950;6.572;2023-03-14T08:52:01;92705.38;;;6.17;100.00
67434;BME280;54305;47.950;6.572;2023-03-14T08:54:26;92701.94;;;6.24;100.00
67434;BME280;54305;47.950;6.572;2023-03-14T08:56:52;92715.91;;;6.30;100.00
67434;BME280;54305;47.950;6.572;2023-03-14T08:59:17;92722.72;;;6.31;100.00
67434;BME280;54305;47.950;6.572;2023-03-14T09:01:43;92724.31;;;6.32;100.00
67434;BME280;54305;47.950;6.572;2023-03-14T09:04:08;92709.09;;;6.37;100.00
67434;BME280;54305;47.950;6.572;2023-03-14T09:06:34;92712.94;;;6.41;100.00
67434;BME280;54305;47.950;6.572;2023-03-14T09:09:00;92707.81;;;6.47;100.00
67434;BME280;54305;47.950;6.572;2023-03-14T09:11:26;92704.72;;;6.52;100.00
67434;BME280;54305;47.950;6.572;2023-03-14T09:13:51;92721.03;;;6.52;100.00
67434;BME280;54305;47.950;6.572;2023-03-14T09:16:17;92712.66;;;6.50;100.00
67434;BME280;54305;47.950;6.572;2023-03-14T09:18:42;92719.44;;;6.51;100.00
67434;BME280;54305;47.950;6.572;2023-03-14T09:21:07;92728.78;;;6.52;100.00
67434;BME280;54305;47.950;6.572;2023-03-14T09:23:33;92727.19;;;6.51;100.00
67434;BME280;54305;47.950;6.572;2023-03-14T09:25:58;92744.22;;;6.46;100.00
67434;BME280;54305;47.950;6.572;2023-03-14T09:28:24;92741.28;;;6.49;100.00
67434;BME280;54305;47.950;6.572;2023-03-14T09:30:49;92741.63;;;6.46;100.00
67434;BME280;54305;47.950;6.572;2023-03-14T09:33:15;92760.34;;;6.48;100.00
67434;BME280;54305;47.950;6.572;2023-03-14T09:35:40;92764.38;;;6.50;100.00
67434;BME280;54305;47.950;6.572;2023-03-14T09:38:05;92757.22;;;6.52;100.00
67434;BME280;54305;47.950;6.572;2023-03-14T09:40:31;92751.72;;;6.55;100.00
67434;BME280;54305;47.950;6.572;2023-03-14T09:42:58;92776.78;;;6.55;100.00
67434;BME280;54305;47.950;6.572;2023-03-14T09:47:49;92783.09;;;6.52;100.00
67434;BME280;54305;47.950;6.572;2023-03-14T09:50:14;92816.53;;;6.54;100.00
67434;BME280;54305;47.950;6.572;2023-03-14T09:52:41;92813.31;;;6.52;100.00
67434;BME280;54305;47.950;6.572;2023-03-14T09:55:20;92839.19;;;6.52;100.00
67434;BME280;54305;47.950;6.572;2023-03-14T09:57:46;92843.09;;;6.48;100.00
67434;BME280;54305;47.950;6.572;2023-03-14T10:00:19;92870.94;;;6.38;100.00
67434;BME280;54305;47.950;6.572;2023-03-14T10:02:55;92881.81;;;6.33;100.00
67434;BME280;54305;47.950;6.572;2023-03-14T10:05:22;92884.03;;;6.14;100.00
67434;BME280;54305;47.950;6.572;2023-03-14T10:07:48;92898.00;;;5.97;100.00
67434;BME280;54305;47.950;6.572;2023-03-14T10:10:18;92940.97;;;5.90;100.00
67434;BME280;54305;47.950;6.572;2023-03-14T10:12:44;92916.44;;;5.94;100.00
67434;BME280;54305;47.950;6.572;2023-03-14T10:15:11;92935.50;;;5.85;100.00
67434;BME280;54305;47.950;6.572;2023-03-14T10:17:42;92932.94;;;5.85;100.00
67434;BME280;54305;47.950;6.572;2023-03-14T10:20:25;92944.25;;;5.84;100.00
67434;BME280;54305;47.950;6.572;2023-03-14T10:22:52;92954.88;;;5.81;100.00
67434;BME280;54305;47.950;6.572;2023-03-14T10:25:26;92970.88;;;5.60;100.00
67434;BME280;54305;47.950;6.572;2023-03-14T10:27:51;92976.25;;;5.51;100.00
67434;BME280;54305;47.950;6.572;2023-03-14T10:33:36;93003.00;;;5.58;100.00
67434;BME280;54305;47.950;6.572;2023-03-14T10:38:20;93033.50;;;5.54;100.00
67434;BME280;54305;47.950;6.572;2023-03-14T10:40:48;93080.16;;;5.53;100.00
67434;BME280;54305;47.950;6.572;2023-03-14T10:43:17;93102.31;;;4.82;100.00
67434;BME280;54305;47.950;6.572;2023-03-14T10:48:34;93128.88;;;4.33;100.00
67434;BME280;54305;47.950;6.572;2023-03-14T10:53:25;93140.22;;;4.48;100.00
67434;BME280;54305;47.950;6.572;2023-03-14T10:55:51;93153.81;;;4.66;100.00
67434;BME280;54305;47.950;6.572;2023-03-14T10:58:17;93149.03;;;4.79;100.00
67434;BME280;54305;47.950;6.572;2023-03-14T11:00:43;93168.69;;;4.80;100.00
67434;BME280;54305;47.950;6.572;2023-03-14T11:03:11;93163.09;;;5.58;100.00
67434;BME280;54305;47.950;6.572;2023-03-14T11:06:04;93173.44;;;5.74;100.00
67434;BME280;54305;47.950;6.572;2023-03-14T11:13:39;93187.69;;;5.86;100.00
67434;BME280;54305;47.950;6.572;2023-03-14T11:16:14;93188.28;;;5.80;100.00
67434;BME280;54305;47.950;6.572;2023-03-14T11:18:46;93195.75;;;5.91;100.00
67434;BME280;54305;47.950;6.572;2023-03-14T11:29:57;93223.16;;;5.76;100.00
67434;BME280;54305;47.950;6.572;2023-03-14T11:31:56;93222.41;;;6.07;100.00
67434;BME280;54305;47.950;6.572;2023-03-14T11:34:39;93230.59;;;5.79;100.00
67434;BME280;54305;47.950;6.572;2023-03-14T11:37:14;93241.59;;;5.23;100.00
67434;BME280;54305;47.950;6.572;2023-03-14T11:39:41;93270.66;;;5.00;100.00
67434;BME280;54305;47.950;6.572;2023-03-14T11:42:09;93249.03;;;4.93;100.00
67434;BME280;54305;47.950;6.572;2023-03-14T11:44:37;93262.56;;;4.87;100.00
67434;BME280;54305;47.950;6.572;2023-03-14T11:47:04;93271.22;;;4.78;100.00
67434;BME280;54305;47.950;6.572;2023-03-14T11:50:07;93274.78;;;4.85;100.00
67434;BME280;54305;47.950;6.572;2023-03-14T11:52:25;93267.78;;;4.69;100.00
67434;BME280;54305;47.950;6.572;2023-03-14T11:54:57;93282.94;;;4.72;100.00
67434;BME280;54305;47.950;6.572;2023-03-14T11:57:27;93277.00;;;4.72;100.00
67434;BME280;54305;47.950;6.572;2023-03-14T12:07:37;93311.78;;;4.76;100.00
67434;BME280;54305;47.950;6.572;2023-03-14T12:10:04;93309.13;;;4.85;100.00
67434;BME280;54305;47.950;6.572;2023-03-14T12:12:29;93312.13;;;4.73;100.00
67434;BME280;54305;47.950;6.572;2023-03-14T12:14:59;93314.69;;;4.73;100.00
67434;BME280;54305;47.950;6.572;2023-03-14T12:17:27;93316.59;;;4.71;100.00
67434;BME280;54305;47.950;6.572;2023-03-14T12:22:34;93314.69;;;4.73;100.00
67434;BME280;54305;47.950;6.572;2023-03-14T12:25:02;93318.63;;;4.85;100.00
67434;BME280;54305;47.950;6.572;2023-03-14T12:30:16;93326.63;;;4.74;100.00
67434;BME280;54305;47.950;6.572;2023-03-14T12:32:41;93338.88;;;4.72;100.00
67434;BME280;54305;47.950;6.572;2023-03-14T12:35:30;93343.84;;;4.73;100.00
67434;BME280;54305;47.950;6.572;2023-03-14T12:37:52;93348.88;;;4.75;100.00
67434;BME280;54305;47.950;6.572;2023-03-14T12:40:32;93350.47;;;4.76;100.00
67434;BME280;54305;47.950;6.572;2023-03-14T12:43:01;93363.72;;;4.81;100.00
67434;BME280;54305;47.950;6.572;2023-03-14T12:45:31;93363.78;;;4.89;100.00
67434;BME280;54305;47.950;6.572;2023-03-14T12:50:33;93364.16;;;4.94;100.00
67434;BME280;54305;47.950;6.572;2023-03-14T12:58:31;93367.75;;;5.01;100.00
67434;BME280;54305;47.950;6.572;2023-03-14T13:00:59;93373.84;;;5.00;100.00
67434;BME280;54305;47.950;6.572;2023-03-14T13:03:26;93374.22;;;5.05;100.00
67434;BME280;54305;47.950;6.572;2023-03-14T13:08:33;93387.94;;;5.05;100.00
67434;BME280;54305;47.950;6.572;2023-03-14T13:10:58;93381.78;;;4.98;100.00
67434;BME280;54305;47.950;6.572;2023-03-14T13:13:24;93385.81;;;5.01;100.00
67434;BME280;54305;47.950;6.572;2023-03-14T13:15:59;93399.06;;;5.06;100.00
67434;BME280;54305;47.950;6.572;2023-03-14T13:18:35;93388.41;;;5.01;100.00
67434;BME280;54305;47.950;6.572;2023-03-14T13:21:17;93397.44;;;5.05;100.00
67434;BME280;54305;47.950;6.572;2023-03-14T13:23:54;93390.66;;;5.04;100.00
67434;BME280;54305;47.950;6.572;2023-03-14T13:26:20;93388.13;;;5.12;100.00
67434;BME280;54305;47.950;6.572;2023-03-14T13:28:46;93393.28;;;5.12;100.00
67434;BME280;54305;47.950;6.572;2023-03-14T13:31:22;93403.91;;;5.09;100.00
67434;BME280;54305;47.950;6.572;2023-03-14T13:33:55;93407.16;;;5.11;100.00
67434;BME280;54305;47.950;6.572;2023-03-14T13:36:21;93406.34;;;5.10;100.00
67434;BME280;54305;47.950;6.572;2023-03-14T13:38:46;93412.00;;;5.14;100.00
67434;BME280;54305;47.950;6.572;2023-03-14T13:41:20;93416.59;;;5.20;100.00
67434;BME280;54305;47.950;6.572;2023-03-14T13:43:45;93416.47;;;5.29;100.00
67434;BME280;54305;47.950;6.572;2023-03-14T13:48:41;93423.16;;;5.40;100.00
67434;BME280;54305;47.950;6.572;2023-03-14T13:51:11;93422.81;;;5.68;100.00
67434;BME280;54305;47.950;6.572;2023-03-14T13:53:44;93416.38;;;6.06;100.00
67434;BME280;54305;47.950;6.572;2023-03-14T13:56:10;93411.22;;;5.72;100.00
67434;BME280;54305;47.950;6.572;2023-03-14T13:58:37;93415.97;;;5.59;100.00
67434;BME280;54305;47.950;6.572;2023-03-14T14:01:04;93401.78;;;6.38;100.00
67434;BME280;54305;47.950;6.572;2023-03-14T14:03:31;93405.81;;;7.21;100.00
67434;BME280;54305;47.950;6.572;2023-03-14T14:05:57;93406.50;;;6.99;100.00
67434;BME280;54305;47.950;6.572;2023-03-14T14:08:25;93402.78;;;6.77;100.00